Port Leyden, New York
Current Conditions -  °F | °C
As of 11:53 AM on Thursday 23 Oct 2014 (Local Time) from KRME Reporting Station
Overcast Overcast  
Wind Chill: 43°   Ceiling: 2300
Heat Index: 48°   Visibility: 10mi
Dew Point: 40°   Wind: 10mph
Humidity: 74%   Direction: 340°NNW
Pressure: 29.94"   Gusts: 18mph
Location:  43.58°N, 75.35°W
Report Text: KRME 231553Z 34009G16KT 10SM OVC023 09/04 A2994 RMK AO2 SLP140 T00890044
Loading
Personal Weather Stations






























Interactive Weather Map
Tropical Storm Tracking
New forecast layout! Learn more

10-Day Weather Forecast

Advertisements
Track Severe Weather on mobile